Salem, OR

4:59 PM PDT on August 28, 2016 (GMT -0700)
Center & Cordon NE | | Change Station

Elev 210 ft 44.94 °N, 122.96 °W | Updated 7 seconds ago

Clear
Clear
86.9 °F
Feels Like 85 °F
N
5.5
Wind Variable Wind from North
Gusts 9.2 mph

Today
High -- | Low -- °F
--% Chance of Precip.
Yesterday
High -- | Low -- °F
Precip. -- in
Pressure 29.98 in
Visibility 10.0 miles
Clouds Clear
Heat Index 85 °F
Dew Point 54 °F
Humidity 32%
Rainfall 0.00 in
Snow Depth Not available.
6:29 AM 7:54 PM
Waning Crescent, 12% visible
METAR KSLE 282356Z 33004KT 10SM CLR 30/11 A2998 RMK AO2 SLP151 T03000106 10300 20200 56011
Pressure 29.98 in
Visibility 10.0 miles
Clouds Clear
Heat Index 85 °F
Dew Point 54 °F
Humidity 32%
Rainfall 0.00 in
Snow Depth Not available.
6:29 AM 7:54 PM
Waning Crescent, 12% visible
METAR KSLE 282356Z 33004KT 10SM CLR 30/11 A2998 RMK AO2 SLP151 T03000106 10300 20200 56011

10-Day Weather Forecast

Almanac

Astronomy

Aug. 28, 2016 Rise Set
Actual Time
Civil Twilight
Nautical Twilight
Astronomical Twilight
Moon
Length of Visible Light
Length of Day
Tomorrow will be .
, % of the Moon is Illuminated

Today's Extremes

State Highs State Lows

Community

WunderPhotos

Upload Photos

1,935,717 photos uploaded!

WunderBlog® & News

Nearby

Air Quality

  Air Quality AQ Index Pollutant
Not available.

Snow Depth

Station Depth Elevation

Earthquake Activity

City Distance Mag. Time & Date
Minimum magnitude displayed is 2.5.

Coastal Water Temperatures

Place Temperature

Stations

Nearby Weather Stations

Station Location Temp. Windchill Dew Point Humidity Wind Precip. Elev Updated Type
                   

Watches & Warnings

There are currently no watches in effect.